Time;durP1;ratioP1;P1;durP2;ratioP2;P2;SDS_P1;SDS_P2;PMS_P1;PMS_P2;Temp;Humidity;BMP_temperature;BMP_pressure;BME280_temperature;BME280_humidity;BME280_pressure;Samples;Min_cycle;Max_cycle;Signal;HPM_P1;HPM_P2
2021/10/01 00:01:56;;;;;;;2.38;0.80;;;;;;;9.51;100.00;101401.72;6405246;23;20066;-78
2021/10/01 00:04:26;;;;;;;2.60;0.82;;;;;;;9.55;100.00;101398.16;6393715;23;20005;-78
2021/10/01 00:06:57;;;;;;;2.55;0.73;;;;;;;9.50;100.00;101397.38;6405411;23;20008;-78
2021/10/01 00:09:27;;;;;;;2.53;0.85;;;;;;;9.54;100.00;101401.66;6405866;23;20005;-78
2021/10/01 00:11:57;;;;;;;1.30;0.55;;;;;;;9.34;100.00;101398.53;6405246;23;20004;-78
2021/10/01 00:14:28;;;;;;;1.35;0.70;;;;;;;9.43;100.00;101387.91;6405512;23;20004;-78
2021/10/01 00:16:58;;;;;;;2.70;0.80;;;;;;;9.28;100.00;101393.44;6393769;23;20008;-78
2021/10/01 00:19:31;;;;;;;1.30;0.60;;;;;;;9.31;100.00;101380.34;6393346;23;20012;-78
2021/10/01 00:22:03;;;;;;;2.20;0.65;;;;;;;9.36;100.00;101386.31;6399382;23;20008;-78
2021/10/01 00:24:35;;;;;;;1.50;0.70;;;;;;;9.25;100.00;101380.41;6404489;23;20001;-78
2021/10/01 00:27:09;;;;;;;2.70;0.80;;;;;;;9.31;100.00;101390.78;6405630;23;20005;-78
2021/10/01 00:29:40;;;;;;;1.90;0.80;;;;;;;9.21;100.00;101374.44;6392971;23;20063;-78
2021/10/01 00:32:11;;;;;;;3.03;0.77;;;;;;;9.20;100.00;101375.31;6405442;23;20491;-78
2021/10/01 00:34:41;;;;;;;1.27;0.60;;;;;;;9.21;100.00;101376.16;6405379;23;20025;-79
2021/10/01 00:37:11;;;;;;;1.02;0.57;;;;;;;9.03;100.00;101370.41;6407041;23;20015;-78
2021/10/01 00:39:42;;;;;;;3.72;0.90;;;;;;;9.04;100.00;101366.91;6406156;23;20011;-78
2021/10/01 00:42:12;;;;;;;3.33;0.82;;;;;;;8.98;100.00;101367.00;6405150;23;19997;-79
2021/10/01 00:44:42;;;;;;;2.08;0.60;;;;;;;8.95;100.00;101365.31;6393328;23;20001;-78
2021/10/01 00:47:13;;;;;;;5.63;0.88;;;;;;;8.85;100.00;101371.56;6405936;23;20338;-78
2021/10/01 00:49:43;;;;;;;1.25;0.57;;;;;;;8.77;100.00;101356.91;6417942;23;20381;-79
2021/10/01 00:52:17;;;;;;;1.00;0.52;;;;;;;8.81;100.00;101356.84;6392925;23;19999;-78
2021/10/01 00:54:48;;;;;;;2.70;0.73;;;;;;;8.69;100.00;101356.19;6404948;23;20409;-78
2021/10/01 00:57:19;;;;;;;1.40;0.57;;;;;;;8.68;100.00;101351.84;6405133;23;20337;-78
2021/10/01 00:59:49;;;;;;;1.83;0.70;;;;;;;8.78;100.00;101343.00;6404365;23;20000;-78
2021/10/01 01:02:19;;;;;;;3.03;0.60;;;;;;;8.64;100.00;101358.88;6405795;23;20063;-78
2021/10/01 01:04:50;;;;;;;2.40;0.70;;;;;;;8.61;100.00;101356.31;6404369;23;20337;-78
2021/10/01 01:07:42;;;;;;;1.80;0.70;;;;;;;8.49;100.00;101348.66;6405333;23;20428;-78
2021/10/01 01:10:51;;;;;;;3.38;0.85;;;;;;;8.49;100.00;101345.19;6405451;23;20028;-78
2021/10/01 01:13:40;;;;;;;3.55;0.70;;;;;;;8.52;100.00;101342.56;6404685;23;20012;-78
2021/10/01 01:16:16;;;;;;;1.98;0.75;;;;;;;8.37;100.00;101337.56;6405145;23;20001;-78
2021/10/01 01:18:48;;;;;;;1.48;0.70;;;;;;;8.31;100.00;101341.13;6393115;23;20005;-78
2021/10/01 01:21:37;;;;;;;4.50;0.77;;;;;;;8.30;100.00;101343.72;6392306;23;20468;-78
2021/10/01 01:24:22;;;;;;;2.10;0.63;;;;;;;8.35;100.00;101342.78;6403935;23;20007;-78
2021/10/01 01:27:25;;;;;;;2.42;0.70;;;;;;;8.46;100.00;101330.47;6405027;23;20005;-78
2021/10/01 01:30:05;;;;;;;2.00;0.77;;;;;;;8.53;100.00;101326.03;6403722;23;20015;-78
2021/10/01 01:32:39;;;;;;;3.08;0.75;;;;;;;8.54;100.00;101328.59;6404748;23;20429;-78
2021/10/01 01:35:16;;;;;;;2.60;0.80;;;;;;;8.58;100.00;101332.88;6392076;23;20007;-78
2021/10/01 01:37:52;;;;;;;1.60;0.90;;;;;;;8.57;100.00;101331.16;6404726;23;20001;-78
2021/10/01 01:40:26;;;;;;;4.47;0.98;;;;;;;8.54;100.00;101327.78;6391821;23;20009;-79
2021/10/01 01:43:00;;;;;;;1.08;0.68;;;;;;;8.65;100.00;101324.09;6405112;23;20103;-79
2021/10/01 01:45:35;;;;;;;3.17;0.82;;;;;;;8.47;100.00;101321.78;6405503;23;20508;-79
2021/10/01 01:48:08;;;;;;;1.90;0.85;;;;;;;8.50;100.00;101324.34;6393485;23;20005;-78
2021/10/01 01:50:39;;;;;;;1.50;0.70;;;;;;;8.49;100.00;101312.19;6392345;23;19997;-79
2021/10/01 01:53:12;;;;;;;3.50;0.75;;;;;;;8.52;100.00;101316.50;6405080;23;20005;-79
2021/10/01 01:55:44;;;;;;;2.65;0.70;;;;;;;8.54;100.00;101312.97;6404708;23;20011;-79
2021/10/01 01:58:16;;;;;;;1.92;0.80;;;;;;;8.53;100.00;101315.63;6404739;23;20001;-78
2021/10/01 02:00:47;;;;;;;4.85;0.77;;;;;;;8.51;100.00;101305.22;6404929;23;20001;-79
2021/10/01 02:03:19;;;;;;;1.30;0.60;;;;;;;8.45;100.00;101302.72;6404578;23;20015;-79
2021/10/01 02:05:50;;;;;;;1.95;0.50;;;;;;;8.48;100.00;101301.78;6405187;23;20059;-78
2021/10/01 02:08:22;;;;;;;2.20;0.70;;;;;;;8.43;100.00;101296.69;6391681;23;20009;-78
2021/10/01 02:10:53;;;;;;;2.00;0.90;;;;;;;8.36;100.00;101289.81;6391575;23;20052;-78
2021/10/01 02:13:24;;;;;;;4.28;0.80;;;;;;;8.41;100.00;101282.78;6403827;23;20001;-78
2021/10/01 02:15:57;;;;;;;1.98;0.63;;;;;;;8.39;100.00;101275.91;6403868;23;20008;-78
2021/10/01 02:18:30;;;;;;;4.47;0.98;;;;;;;8.39;100.00;101283.72;6404551;23;19997;-78
2021/10/01 02:21:01;;;;;;;2.30;0.88;;;;;;;8.35;100.00;101282.91;6404049;23;20005;-78
2021/10/01 02:23:32;;;;;;;4.32;0.95;;;;;;;8.34;100.00;101277.69;6392422;23;20012;-78
2021/10/01 02:29:08;;;;;;;2.33;0.90;;;;;;;8.40;100.00;101275.84;6405029;23;20015;-78
2021/10/01 02:31:55;;;;;;;1.88;0.82;;;;;;;8.49;100.00;101272.25;6405136;23;20001;-78
2021/10/01 02:34:38;;;;;;;3.28;0.85;;;;;;;8.45;100.00;101261.03;6405088;23;20008;-79
2021/10/01 02:37:10;;;;;;;1.42;0.73;;;;;;;8.51;100.00;101262.66;6405088;23;20009;-78
2021/10/01 02:39:42;;;;;;;1.45;0.77;;;;;;;8.52;100.00;101265.25;6405103;23;20001;-79
2021/10/01 02:42:15;;;;;;;3.00;0.90;;;;;;;8.51;100.00;101253.13;6393764;23;20001;-79
2021/10/01 02:44:46;;;;;;;2.67;0.93;;;;;;;8.53;100.00;101247.91;6395418;23;20337;-79
2021/10/01 02:47:19;;;;;;;0.95;0.60;;;;;;;8.50;100.00;101255.72;6396182;23;20009;-79
2021/10/01 02:49:50;;;;;;;1.75;0.75;;;;;;;8.50;100.00;101248.78;6407625;23;19997;-78
2021/10/01 02:52:37;;;;;;;1.48;0.75;;;;;;;8.42;100.00;101250.66;6395412;23;20059;-79
2021/10/01 02:55:17;;;;;;;0.90;0.68;;;;;;;8.36;100.00;101244.72;6407317;23;20373;-79
2021/10/01 02:58:15;;;;;;;2.13;0.80;;;;;;;8.37;100.00;101241.22;6407386;23;20523;-79
2021/10/01 03:00:47;;;;;;;4.30;0.80;;;;;;;8.43;100.00;101234.16;6406701;23;20009;-79
2021/10/01 03:03:21;;;;;;;2.47;0.80;;;;;;;8.44;100.00;101232.41;6406249;23;20001;-78
2021/10/01 03:05:57;;;;;;;2.25;0.73;;;;;;;8.48;100.00;101234.94;6393552;23;20001;-78
2021/10/01 03:08:29;;;;;;;1.63;0.60;;;;;;;8.52;100.00;101226.19;6395878;23;19997;-79
2021/10/01 03:11:01;;;;;;;2.85;1.00;;;;;;;8.68;100.00;101227.63;6407707;23;19993;-79
2021/10/01 03:13:33;;;;;;;3.88;0.95;;;;;;;8.89;100.00;101222.03;6395485;23;20092;-79
2021/10/01 03:16:08;;;;;;;4.68;0.80;;;;;;;9.00;100.00;101220.09;6394748;23;20084;-79
2021/10/01 03:18:39;;;;;;;2.17;0.70;;;;;;;9.05;100.00;101223.47;6406682;23;20059;-79
2021/10/01 03:21:10;;;;;;;4.70;0.98;;;;;;;9.04;100.00;101216.53;6394513;23;20244;-79
2021/10/01 03:23:43;;;;;;;2.45;0.88;;;;;;;9.19;100.00;101216.25;6395266;23;20004;-79
2021/10/01 03:26:14;;;;;;;1.30;0.70;;;;;;;9.07;100.00;101211.25;6395687;23;20499;-78
2021/10/01 03:28:45;;;;;;;1.95;0.63;;;;;;;8.98;100.00;101216.66;6407971;23;20001;-78
2021/10/01 03:31:16;;;;;;;1.50;0.60;;;;;;;8.99;100.00;101202.75;6407746;23;20000;-79
2021/10/01 03:33:47;;;;;;;2.20;0.80;;;;;;;9.07;100.00;101213.88;6406567;23;19997;-79
2021/10/01 03:36:18;;;;;;;1.83;0.60;;;;;;;9.19;100.00;101211.03;6395798;23;20024;-79
2021/10/01 03:38:52;;;;;;;5.47;0.82;;;;;;;9.10;100.00;101205.13;6404974;23;20055;-79
2021/10/01 03:41:22;;;;;;;3.03;0.85;;;;;;;9.13;100.00;101212.91;6407053;23;20012;-78
2021/10/01 03:43:53;;;;;;;2.47;0.77;;;;;;;9.01;100.00;101206.16;6394685;23;20001;-78
2021/10/01 03:46:23;;;;;;;1.75;0.65;;;;;;;8.97;100.00;101195.81;6408432;23;20001;-79
2021/10/01 03:48:53;;;;;;;2.28;0.90;;;;;;;8.74;100.00;101205.84;6406808;23;20039;-79
2021/10/01 03:51:24;;;;;;;3.20;0.75;;;;;;;8.79;100.00;101196.19;6394729;23;20076;-78
2021/10/01 03:53:55;;;;;;;2.50;0.70;;;;;;;8.86;100.00;101196.03;6407065;23;19997;-79
2021/10/01 03:56:26;;;;;;;2.40;0.60;;;;;;;8.76;100.00;101194.47;6394571;23;20028;-78
2021/10/01 03:58:56;;;;;;;3.38;0.93;;;;;;;8.80;100.00;101196.16;6404742;23;20005;-78
2021/10/01 04:01:26;;;;;;;2.72;0.85;;;;;;;8.61;100.00;101200.00;6405331;23;20012;-78
2021/10/01 04:03:57;;;;;;;2.40;0.70;;;;;;;8.45;100.00;101195.94;6406985;23;20001;-78
2021/10/01 04:06:27;;;;;;;5.13;0.80;;;;;;;8.38;100.00;101196.06;6397068;23;20005;-78
2021/10/01 04:08:57;;;;;;;9.07;0.75;;;;;;;8.33;100.00;101197.84;6403863;23;20004;-78
2021/10/01 04:11:28;;;;;;;1.85;0.80;;;;;;;8.30;100.00;101198.78;6405140;23;19997;-78
2021/10/01 04:13:58;;;;;;;1.60;0.55;;;;;;;8.25;100.00;101187.56;6399684;23;20036;-78
2021/10/01 04:16:29;;;;;;;7.40;1.08;;;;;;;8.34;100.00;101190.03;6412870;23;19997;-78
2021/10/01 04:18:59;;;;;;;2.90;0.60;;;;;;;8.44;100.00;101188.13;6408184;23;20076;-77
2021/10/01 04:21:30;;;;;;;1.88;0.88;;;;;;;8.38;100.00;101183.88;6404117;23;20008;-77
2021/10/01 04:24:00;;;;;;;2.78;0.80;;;;;;;8.46;100.00;101192.44;6393120;23;20087;-78
2021/10/01 04:26:30;;;;;;;4.50;0.98;;;;;;;8.55;100.00;101184.44;6405637;23;20472;-77
2021/10/01 04:29:01;;;;;;;2.30;0.77;;;;;;;8.59;100.00;101186.09;6393109;23;20008;-78
2021/10/01 04:31:31;;;;;;;2.35;0.70;;;;;;;8.64;100.00;101183.41;6392959;23;20028;-78
2021/10/01 04:34:03;;;;;;;1.23;0.63;;;;;;;8.69;100.00;101181.63;6403969;23;20005;-78
2021/10/01 04:36:34;;;;;;;1.92;0.70;;;;;;;8.72;100.00;101176.34;6405195;23;19997;-78
2021/10/01 04:39:05;;;;;;;1.75;0.73;;;;;;;8.68;100.00;101177.25;6391955;23;20000;-78
2021/10/01 04:41:35;;;;;;;2.35;0.88;;;;;;;8.77;100.00;101183.19;6403618;23;20005;-78
2021/10/01 04:44:06;;;;;;;1.95;0.63;;;;;;;8.58;100.00;101179.16;6391607;23;19996;-78
2021/10/01 04:46:36;;;;;;;1.40;0.80;;;;;;;8.52;100.00;101181.06;6403889;23;20008;-78
2021/10/01 04:49:06;;;;;;;2.60;0.52;;;;;;;8.47;100.00;101170.72;6403442;23;20485;-78
2021/10/01 04:51:37;;;;;;;2.60;0.63;;;;;;;8.44;100.00;101173.38;6391455;23;19997;-78
2021/10/01 04:54:07;;;;;;;3.30;0.55;;;;;;;8.52;100.00;101178.44;6391624;23;20005;-78
2021/10/01 04:56:37;;;;;;;1.60;0.60;;;;;;;8.40;100.00;101186.47;6404890;23;20076;-78
2021/10/01 04:59:08;;;;;;;1.65;0.55;;;;;;;8.46;100.00;101176.81;6403490;23;20008;-78
2021/10/01 05:01:38;;;;;;;2.50;0.80;;;;;;;8.42;100.00;101166.47;6403866;23;20055;-78
2021/10/01 05:04:08;;;;;;;1.50;0.63;;;;;;;8.34;100.00;101168.31;6403958;23;20028;-78
2021/10/01 05:06:41;;;;;;;2.13;0.80;;;;;;;8.32;100.00;101170.09;6391312;23;20028;-78
2021/10/01 05:09:11;;;;;;;2.65;0.73;;;;;;;8.33;100.00;101177.03;6403832;23;20009;-78
2021/10/01 05:11:41;;;;;;;1.23;0.57;;;;;;;8.35;100.00;101170.06;6390357;23;20009;-79
2021/10/01 05:14:12;;;;;;;1.15;0.60;;;;;;;8.44;100.00;101164.69;6402547;23;20449;-79
2021/10/01 05:16:43;;;;;;;2.22;0.90;;;;;;;8.42;100.00;101164.69;6403854;23;20365;-78
2021/10/01 05:19:13;;;;;;;1.65;0.63;;;;;;;8.25;100.00;101169.34;6391542;23;20490;-78
2021/10/01 05:21:44;;;;;;;4.88;0.60;;;;;;;8.28;100.00;101163.22;6391718;23;20041;-78
2021/10/01 05:24:14;;;;;;;1.10;0.60;;;;;;;8.34;100.00;101169.19;6386257;23;20325;-79
2021/10/01 05:26:45;;;;;;;4.55;1.00;;;;;;;8.48;100.00;101163.75;6389528;23;20019;-79
2021/10/01 05:29:15;;;;;;;1.23;0.50;;;;;;;8.50;100.00;101165.44;6404950;23;20269;-80
2021/10/01 05:31:45;;;;;;;2.05;0.60;;;;;;;8.56;100.00;101175.75;6398549;23;20009;-81
2021/10/01 05:34:18;;;;;;;1.92;0.75;;;;;;;8.65;100.00;101169.50;6397279;23;20001;-80
2021/10/01 05:36:48;;;;;;;3.60;0.80;;;;;;;8.70;100.00;101175.50;6410364;23;20007;-80
2021/10/01 05:39:19;;;;;;;3.38;0.77;;;;;;;8.83;100.00;101164.81;6410203;23;20005;-81
2021/10/01 05:41:49;;;;;;;3.15;0.65;;;;;;;8.87;100.00;101170.84;6397484;23;20012;-80
2021/10/01 05:44:23;;;;;;;0.77;0.50;;;;;;;9.07;100.00;101169.53;6409916;23;20012;-80
2021/10/01 05:46:53;;;;;;;1.02;0.55;;;;;;;8.91;100.00;101168.13;6398003;23;19997;-80
2021/10/01 05:49:27;;;;;;;1.98;0.60;;;;;;;9.07;100.00;101166.09;6410559;23;20460;-80
2021/10/01 05:52:13;;;;;;;1.65;0.50;;;;;;;8.95;100.00;101163.72;6397341;23;19997;-81
2021/10/01 05:54:45;;;;;;;1.85;0.70;;;;;;;9.01;100.00;101164.47;6393940;23;20163;-80
2021/10/01 05:57:15;;;;;;;1.27;0.57;;;;;;;8.98;100.00;101159.31;6396362;23;20008;-81
2021/10/01 05:59:46;;;;;;;2.55;0.70;;;;;;;9.15;100.00;101159.84;6396854;23;20059;-79
2021/10/01 06:02:21;;;;;;;1.98;0.68;;;;;;;9.22;100.00;101158.81;6402736;23;20025;-79
2021/10/01 06:04:52;;;;;;;2.93;0.80;;;;;;;9.20;100.00;101163.19;6397655;23;20005;-79
2021/10/01 06:07:23;;;;;;;1.90;0.70;;;;;;;9.29;100.00;101169.09;6401867;23;20013;-81
2021/10/01 06:09:53;;;;;;;6.40;0.63;;;;;;;9.33;100.00;101169.88;6412962;23;20020;-80
2021/10/01 06:12:23;;;;;;;1.20;0.50;;;;;;;9.45;100.00;101167.03;6401799;23;20001;-80
2021/10/01 06:14:54;;;;;;;1.30;0.60;;;;;;;9.68;100.00;101159.53;6400578;23;20001;-80
2021/10/01 06:17:24;;;;;;;1.90;0.40;;;;;;;9.82;100.00;101173.13;6401646;23;20005;-79
2021/10/01 06:19:54;;;;;;;2.45;0.70;;;;;;;9.98;100.00;101164.06;6402294;23;20516;-81
2021/10/01 06:22:25;;;;;;;1.52;0.60;;;;;;;9.93;100.00;101165.91;6397988;23;19997;-82
2021/10/01 06:24:55;;;;;;;1.77;0.60;;;;;;;9.95;100.00;101161.50;6393578;23;20005;-81
2021/10/01 06:27:25;;;;;;;1.65;0.50;;;;;;;10.05;100.00;101165.66;6410938;23;20080;-81
2021/10/01 06:29:56;;;;;;;1.75;0.70;;;;;;;10.17;99.26;101160.13;6397971;23;20004;-81
2021/10/01 06:32:32;;;;;;;1.90;0.60;;;;;;;10.18;99.12;101157.47;6399183;23;20076;-81
2021/10/01 06:35:04;;;;;;;2.58;0.60;;;;;;;10.25;99.53;101166.00;6398115;23;20009;-81
2021/10/01 06:37:35;;;;;;;3.13;0.80;;;;;;;10.45;97.71;101164.63;6399637;23;20073;-81
2021/10/01 06:40:06;;;;;;;1.20;0.55;;;;;;;10.31;99.78;101165.88;6398438;23;20438;-80
2021/10/01 06:42:37;;;;;;;1.85;0.60;;;;;;;10.47;99.96;101161.94;6397867;23;20012;-81
2021/10/01 06:45:08;;;;;;;1.52;0.47;;;;;;;10.46;98.99;101160.25;6411276;23;20001;-81
2021/10/01 07:21:38;;;;;;;2.88;0.60;;;;;;;13.12;89.92;101128.19;6409679;23;20012;-81
2021/10/01 08:19:55;;;;;;;1.27;0.47;;;;;;;18.90;68.21;101085.13;6409245;23;20019;-81
2021/10/01 08:22:26;;;;;;;1.33;0.35;;;;;;;18.21;68.95;101079.69;6397348;23;20001;-81
2021/10/01 08:24:56;;;;;;;1.27;0.55;;;;;;;19.36;67.03;101076.06;6409924;23;20004;-80
2021/10/01 08:27:27;;;;;;;2.17;0.68;;;;;;;19.57;67.35;101079.97;6409931;23;20064;-82
2021/10/01 08:29:57;;;;;;;1.42;0.60;;;;;;;20.73;63.05;101072.97;6397667;23;20001;-80
2021/10/01 08:32:27;;;;;;;1.27;0.50;;;;;;;19.88;63.92;101079.69;6398486;23;20001;-81
2021/10/01 08:34:57;;;;;;;1.35;0.50;;;;;;;20.06;64.96;101082.97;6397370;23;20009;-80
2021/10/01 08:37:28;;;;;;;0.53;0.40;;;;;;;20.98;62.60;101079.16;6398757;23;20056;-81
2021/10/01 08:39:58;;;;;;;2.90;0.30;;;;;;;21.52;61.47;101079.69;6397620;23;20239;-81
2021/10/01 08:42:31;;;;;;;2.03;0.50;;;;;;;20.90;60.54;101081.50;6409430;23;20310;-80
2021/10/01 08:45:02;;;;;;;1.90;0.45;;;;;;;21.18;60.69;101083.06;6397243;23;20001;-82
2021/10/01 08:47:32;;;;;;;2.00;0.50;;;;;;;21.80;58.51;101066.09;6409540;23;20020;-81
2021/10/01 08:50:04;;;;;;;1.27;0.60;;;;;;;20.46;61.51;101074.88;6396671;23;20052;-79
2021/10/01 08:52:35;;;;;;;1.85;0.40;;;;;;;20.72;60.32;101071.28;6398111;23;20008;-80
2021/10/01 08:55:07;;;;;;;1.27;0.40;;;;;;;20.25;60.82;101072.81;6409894;23;20032;-80
2021/10/01 08:57:38;;;;;;;3.08;0.60;;;;;;;19.69;63.23;101071.25;6396891;23;20008;-80
2021/10/01 09:00:13;;;;;;;1.48;0.50;;;;;;;19.06;63.29;101069.13;6397375;23;19997;-81
2021/10/01 09:02:44;;;;;;;1.58;0.52;;;;;;;18.60;65.06;101072.91;6397471;23;20008;-81
2021/10/01 09:05:15;;;;;;;2.42;0.57;;;;;;;18.64;66.89;101076.22;6396441;23;20013;-80
2021/10/01 09:07:45;;;;;;;1.08;0.40;;;;;;;18.08;66.91;101070.75;6407916;23;20053;-80
2021/10/01 09:10:15;;;;;;;1.33;0.40;;;;;;;17.78;67.07;101077.81;6407383;23;20001;-80
2021/10/01 09:12:52;;;;;;;1.23;0.40;;;;;;;17.94;66.66;101078.66;6396274;23;20076;-80
2021/10/01 09:15:37;;;;;;;2.08;0.45;;;;;;;17.53;68.47;101070.44;6408206;23;20008;-80
2021/10/01 09:18:08;;;;;;;1.10;0.32;;;;;;;17.68;69.63;101063.44;6408906;23;20031;-81
2021/10/01 09:20:38;;;;;;;2.17;0.52;;;;;;;17.96;68.24;101066.19;6395841;23;20028;-80
2021/10/01 09:23:18;;;;;;;1.15;0.30;;;;;;;17.77;66.07;101065.53;6408492;23;20001;-81
2021/10/01 09:25:48;;;;;;;2.78;0.63;;;;;;;18.05;67.19;101055.94;6396135;23;20022;-81
2021/10/01 09:28:21;;;;;;;1.45;0.50;;;;;;;18.25;67.51;101057.41;6407538;23;20433;-81
2021/10/01 09:30:52;;;;;;;1.95;0.50;;;;;;;18.28;68.65;101051.94;6395671;23;20001;-81
2021/10/01 09:33:23;;;;;;;2.17;0.60;;;;;;;17.80;67.78;101042.41;6395961;23;20035;-80
2021/10/01 09:36:08;;;;;;;1.17;0.47;;;;;;;18.26;68.61;101040.56;6407555;23;20001;-82
2021/10/01 09:38:40;;;;;;;4.63;0.50;;;;;;;18.49;67.33;101035.63;6396272;23;20712;-79
2021/10/01 09:41:12;;;;;;;2.20;0.68;;;;;;;18.79;67.94;101037.25;6395168;23;20237;-80
2021/10/01 09:43:43;;;;;;;1.42;0.43;;;;;;;18.45;64.67;101028.84;6394656;23;20535;-78
2021/10/01 09:46:13;;;;;;;1.77;0.40;;;;;;;18.29;66.30;101027.19;6396121;23;20005;-80
2021/10/01 09:48:43;;;;;;;1.40;0.43;;;;;;;17.93;67.11;101024.03;6407727;23;20001;-81
2021/10/01 09:51:17;;;;;;;3.35;0.50;;;;;;;17.88;68.01;101021.69;6393973;23;19997;-80
2021/10/01 09:53:50;;;;;;;1.05;0.40;;;;;;;17.67;67.80;101030.00;6394688;23;20029;-80
2021/10/01 09:56:31;;;;;;;1.33;0.40;;;;;;;17.48;69.30;101018.78;6395451;23;20015;-81
2021/10/01 09:59:09;;;;;;;1.38;0.43;;;;;;;17.58;70.59;101020.81;6407258;23;19997;-79
2021/10/01 10:02:08;;;;;;;1.50;0.40;;;;;;;17.96;71.00;101014.13;6394937;23;19997;-81
2021/10/01 10:04:48;;;;;;;4.50;0.80;;;;;;;18.27;69.07;101002.56;6393821;23;20337;-81
2021/10/01 10:07:24;;;;;;;1.92;0.77;;;;;;;18.37;64.97;100998.47;6407962;23;20004;-81
2021/10/01 10:09:56;;;;;;;2.13;0.50;;;;;;;18.59;65.54;100998.88;6406980;23;20008;-80
2021/10/01 10:12:32;;;;;;;1.45;0.50;;;;;;;18.78;64.99;101003.78;6394768;23;19997;-81
2021/10/01 10:15:16;;;;;;;2.15;0.57;;;;;;;18.77;65.51;100991.47;6395545;23;20016;-80
2021/10/01 10:17:52;;;;;;;1.98;0.50;;;;;;;19.11;65.23;100987.56;6395732;23;20031;-81
2021/10/01 10:20:22;;;;;;;1.02;0.40;;;;;;;18.84;63.71;100984.88;6407741;23;20028;-81
2021/10/01 10:22:53;;;;;;;0.93;0.30;;;;;;;18.95;65.24;100982.38;6406931;23;20004;-81
2021/10/01 10:25:23;;;;;;;2.00;0.50;;;;;;;19.24;64.89;100981.41;6407378;23;20001;-80
2021/10/01 10:27:53;;;;;;;2.65;0.22;;;;;;;19.14;64.67;100977.59;6407741;23;20771;-80
2021/10/01 10:30:24;;;;;;;2.30;0.40;;;;;;;19.25;62.69;100969.84;6395759;23;20024;-80
2021/10/01 10:32:54;;;;;;;1.42;0.40;;;;;;;19.37;62.89;100968.19;6395516;23;20708;-81
2021/10/01 10:35:39;;;;;;;2.40;0.43;;;;;;;19.46;63.76;100963.13;6407817;23;20114;-79
2021/10/01 10:38:32;;;;;;;1.35;0.40;;;;;;;19.48;61.69;100960.41;6407916;23;19997;-80
2021/10/01 10:41:22;;;;;;;2.17;0.40;;;;;;;19.28;64.43;100959.03;6396644;23;20033;-79
2021/10/01 10:43:53;;;;;;;1.63;0.55;;;;;;;19.04;62.08;100957.94;6406965;23;20011;-80
2021/10/01 10:46:45;;;;;;;1.02;0.40;;;;;;;18.95;63.09;100960.34;6395588;23;20024;-81
2021/10/01 10:49:33;;;;;;;2.90;0.40;;;;;;;18.87;64.69;100949.38;6396597;23;20001;-82
2021/10/01 10:52:16;;;;;;;2.13;0.40;;;;;;;18.74;61.33;100946.66;6396450;23;19997;-81
2021/10/01 10:54:52;;;;;;;1.35;0.30;;;;;;;18.75;63.33;100937.75;6407425;23;20455;-81
2021/10/01 10:57:22;;;;;;;;;;;;;;;18.88;61.58;100937.81;6408837;23;20002;-81
2021/10/01 11:00:03;;;;;;;0.40;0.20;;;;;;;18.96;59.38;100936.38;6395353;23;19952;-82
2021/10/01 11:02:44;;;;;;;0.75;0.20;;;;;;;19.16;55.96;100936.00;6408388;23;20271;-80
2021/10/01 11:05:25;;;;;;;1.48;0.30;;;;;;;19.16;55.75;100935.09;6396675;23;20457;-80
2021/10/01 11:08:03;;;;;;;0.85;0.30;;;;;;;19.37;55.09;100920.47;6397152;23;20049;-81
2021/10/01 11:10:42;;;;;;;2.30;0.40;;;;;;;19.63;54.78;100917.78;6409481;23;20001;-79
2021/10/01 11:13:22;;;;;;;1.10;0.30;;;;;;;19.70;51.69;100908.47;6398586;23;20068;-79
2021/10/01 11:16:08;;;;;;;0.85;0.40;;;;;;;19.92;52.03;100900.75;6397206;23;20009;-81
2021/10/01 11:18:44;;;;;;;0.75;0.22;;;;;;;20.02;54.01;100901.88;6398346;23;20069;-80
2021/10/01 11:21:33;;;;;;;0.65;0.22;;;;;;;20.10;53.36;100894.19;6408922;23;20195;-81
2021/10/01 11:24:18;;;;;;;1.00;0.30;;;;;;;20.08;54.48;100893.47;6397053;23;20514;-81
2021/10/01 11:27:01;;;;;;;1.70;0.30;;;;;;;20.34;53.52;100887.19;6397929;23;20062;-81
2021/10/01 11:29:39;;;;;;;1.10;0.47;;;;;;;20.13;50.39;100880.72;6409845;23;20005;-81
2021/10/01 11:32:21;;;;;;;0.57;0.30;;;;;;;20.07;51.06;100886.47;6397058;23;20001;-81
2021/10/01 11:34:53;;;;;;;0.50;0.25;;;;;;;20.04;53.55;100881.38;6398484;23;20009;-81
2021/10/01 11:37:26;;;;;;;0.90;0.30;;;;;;;20.04;50.03;100881.38;6398034;23;20001;-81
2021/10/01 11:40:03;;;;;;;0.50;0.30;;;;;;;19.77;51.41;100875.25;6408622;23;20295;-80
2021/10/01 11:42:36;;;;;;;0.45;0.30;;;;;;;19.52;51.97;100867.28;6409305;23;20013;-80
2021/10/01 11:45:16;;;;;;;1.27;0.55;;;;;;;19.58;53.36;100874.00;6397704;23;20012;-80
2021/10/01 11:48:04;;;;;;;1.25;0.32;;;;;;;19.48;54.58;100863.13;6397241;23;20077;-80
2021/10/01 11:50:45;;;;;;;0.80;0.35;;;;;;;19.68;55.02;100865.31;6396807;23;20085;-81
2021/10/01 11:53:19;;;;;;;0.25;0.20;;;;;;;19.75;54.56;100860.44;6396408;23;20234;-82
2021/10/01 11:55:54;;;;;;;0.60;0.30;;;;;;;19.63;53.49;100862.09;6397142;23;20008;-77
2021/10/01 11:58:25;;;;;;;1.52;0.40;;;;;;;19.67;53.74;100858.28;6408077;23;20001;-79
2021/10/01 12:01:08;;;;;;;0.98;0.40;;;;;;;19.69;55.11;100844.91;6396510;23;20009;-80
2021/10/01 12:03:56;;;;;;;0.98;0.30;;;;;;;19.44;54.05;100847.53;6397759;23;20005;-80
2021/10/01 12:06:35;;;;;;;1.02;0.28;;;;;;;19.37;54.67;100841.81;6395579;23;20008;-79
2021/10/01 12:09:08;;;;;;;1.88;0.30;;;;;;;19.66;55.91;100835.38;6397494;23;20000;-78
2021/10/01 12:11:41;;;;;;;1.88;0.40;;;;;;;19.61;53.90;100834.81;6407867;23;20248;-80
2021/10/01 12:14:17;;;;;;;0.90;0.30;;;;;;;19.55;56.34;100832.59;6407879;23;20047;-80
2021/10/01 12:16:57;;;;;;;2.08;0.30;;;;;;;19.40;55.88;100828.34;6408598;23;20005;-78
2021/10/01 12:19:29;;;;;;;2.10;0.40;;;;;;;19.28;56.08;100825.66;6395735;23;20001;-78
2021/10/01 12:22:15;;;;;;;0.95;0.30;;;;;;;19.49;56.18;100821.56;6396378;23;20009;-79
2021/10/01 12:24:50;;;;;;;0.55;0.38;;;;;;;19.49;57.04;100819.78;6396033;23;20072;-79
2021/10/01 12:27:39;;;;;;;;;;;;;;;19.54;55.55;100822.09;6408761;23;20005;-79
2021/10/01 12:30:11;;;;;;;0.20;0.20;;;;;;;19.63;54.30;100809.03;6395353;23;19904;-79
2021/10/01 12:32:41;;;;;;;0.85;0.35;;;;;;;19.67;55.60;100802.59;6408887;23;20044;-79
2021/10/01 12:35:12;;;;;;;1.90;0.30;;;;;;;19.63;54.79;100795.78;6408162;23;20013;-80
2021/10/01 12:37:43;;;;;;;0.22;0.20;;;;;;;19.72;54.98;100792.50;6395652;23;20005;-77
2021/10/01 12:40:13;;;;;;;0.93;0.30;;;;;;;19.71;53.76;100798.78;6395141;23;20058;-79
2021/10/01 12:42:43;;;;;;;1.73;0.40;;;;;;;19.60;53.64;100793.34;6395006;23;20035;-79
2021/10/01 12:45:17;;;;;;;1.63;0.45;;;;;;;19.66;55.77;100795.59;6397237;23;20000;-78
2021/10/01 12:47:50;;;;;;;0.85;0.40;;;;;;;19.45;55.21;100798.88;6394522;23;20396;-79
2021/10/01 12:50:29;;;;;;;0.32;0.25;;;;;;;19.51;53.11;100796.66;6407097;23;20125;-79
2021/10/01 12:53:02;;;;;;;1.05;0.40;;;;;;;19.54;54.60;100793.78;6395005;23;20001;-78
2021/10/01 12:55:33;;;;;;;1.33;0.40;;;;;;;19.61;52.98;100784.44;6395272;23;20192;-78
2021/10/01 12:58:04;;;;;;;1.45;0.32;;;;;;;19.51;55.14;100791.34;6396035;23;20056;-79
2021/10/01 13:00:37;;;;;;;1.52;0.30;;;;;;;19.58;55.60;100776.69;6396144;23;20406;-78
2021/10/01 13:03:08;;;;;;;1.00;0.40;;;;;;;19.48;56.03;100782.75;6407002;23;20005;-78
2021/10/01 13:05:41;;;;;;;0.77;0.17;;;;;;;19.51;54.18;100780.75;6408243;23;20001;-78
2021/10/01 13:08:15;;;;;;;1.13;0.30;;;;;;;19.51;53.58;100772.78;6407052;23;20096;-78
2021/10/01 13:10:59;;;;;;;1.48;0.40;;;;;;;19.60;54.13;100771.31;6406659;23;19993;-79
2021/10/01 13:13:34;;;;;;;0.40;0.20;;;;;;;19.60;55.65;100774.78;6406609;23;20094;-78
2021/10/01 13:16:13;;;;;;;2.07;0.53;;;;;;;19.55;53.73;100768.97;6406767;23;20004;-79
2021/10/01 13:18:43;;;;;;;0.85;0.30;;;;;;;19.53;54.79;100762.91;6394478;23;20559;-79
2021/10/01 13:21:16;;;;;;;0.60;0.30;;;;;;;19.44;56.19;100758.22;6393673;23;20013;-79
2021/10/01 13:23:54;;;;;;;0.63;0.30;;;;;;;19.32;58.01;100761.75;6393892;23;20089;-79
2021/10/01 13:26:30;;;;;;;0.70;0.40;;;;;;;19.30;55.78;100760.16;6406891;23;20401;-79
2021/10/01 13:29:04;;;;;;;0.73;0.40;;;;;;;19.36;55.75;100760.59;6394777;23;20252;-79
2021/10/01 13:31:39;;;;;;;1.15;0.40;;;;;;;19.23;55.99;100756.19;6406886;23;20075;-79